Shengsi, China
Current Conditions -  °F | °C
As of 8:00 AM on Monday 24 Nov 2014 (Local Time) from ZSPD Reporting Station
Clear Clear  
Wind Chill: 66°   Ceiling: Unl
Heat Index: 66°   Visibility: 5mi
Dew Point: 64°   Wind: 9mph
Humidity: 94%   Direction: 170°S
Pressure: 29.97"   Gusts: NA
Location:  30.73°N, 122.45°E
Report Text: ZSPD 240000Z 17004MPS 8000 NSC 19/18 Q1015 NOSIG
Loading
Personal Weather Stations






























Interactive Weather Map New forecast layout! Learn more

10-Day Weather Forecast

Advertisements
Track Severe Weather on mobile